Time;durP1;ratioP1;P1;durP2;ratioP2;P2;SDS_P1;SDS_P2;PMS_P1;PMS_P2;Temp;Humidity;BMP_temperature;BMP_pressure;BME280_temperature;BME280_humidity;BME280_pressure;Samples;Min_cycle;Max_cycle;Signal;HPM_P1;HPM_P2
2023/04/14 00:02:07;;;;;;;2.65;1.50;;;10.00;50.50;;;;;;5013370;28;20441;-50
2023/04/14 00:04:37;;;;;;;3.65;1.60;;;9.90;50.50;;;;;;5012159;28;20053;-47
2023/04/14 00:07:04;;;;;;;2.30;1.75;;;9.90;50.50;;;;;;5028136;28;20448;-47
2023/04/14 00:09:31;;;;;;;4.95;1.67;;;9.80;50.50;;;;;;5032412;28;20060;-48
2023/04/14 00:11:58;;;;;;;2.92;1.30;;;9.80;50.70;;;;;;5027614;28;20506;-51
2023/04/14 00:14:24;;;;;;;1.20;1.10;;;9.70;50.80;;;;;;5014155;28;20042;-46
2023/04/14 00:16:53;;;;;;;2.78;1.70;;;9.70;50.80;;;;;;5028182;28;20461;-46
2023/04/14 00:19:20;;;;;;;2.30;1.50;;;9.70;51.00;;;;;;5029994;28;20049;-49
2023/04/14 00:21:46;;;;;;;1.65;1.23;;;9.60;51.00;;;;;;5027438;28;20103;-49
2023/04/14 00:24:13;;;;;;;2.63;1.30;;;9.60;51.10;;;;;;5013955;28;20049;-48
2023/04/14 00:26:42;;;;;;;1.13;1.02;;;9.50;51.10;;;;;;5021809;28;20053;-49
2023/04/14 00:29:11;;;;;;;5.32;1.88;;;9.50;51.30;;;;;;5024402;28;20736;-52
2023/04/14 00:31:40;;;;;;;3.92;1.63;;;9.50;51.40;;;;;;5014751;28;20044;-49
2023/04/14 00:34:07;;;;;;;2.85;1.50;;;9.40;51.50;;;;;;5011826;28;20050;-51
2023/04/14 00:36:34;;;;;;;2.80;1.73;;;9.40;51.70;;;;;;5024726;28;20462;-50
2023/04/14 00:39:05;;;;;;;2.55;1.75;;;9.40;51.90;;;;;;5013525;28;20061;-51
2023/04/14 00:41:33;;;;;;;1.95;1.67;;;9.30;52.10;;;;;;5031120;28;20392;-53
2023/04/14 00:44:01;;;;;;;3.78;1.65;;;9.30;52.10;;;;;;5013115;28;20410;-52
2023/04/14 00:46:30;;;;;;;4.13;1.75;;;9.30;52.10;;;;;;5030774;28;20041;-51
2023/04/14 00:49:00;;;;;;;3.40;1.70;;;9.20;52.20;;;;;;5013580;28;20042;-47
2023/04/14 00:51:27;;;;;;;3.78;1.80;;;9.20;52.30;;;;;;5028065;28;20084;-52
2023/04/14 00:53:55;;;;;;;2.33;1.65;;;9.20;52.40;;;;;;5009691;28;20502;-50
2023/04/14 00:56:30;;;;;;;2.72;1.73;;;9.20;52.50;;;;;;5029889;28;20061;-47
2023/04/14 00:59:00;;;;;;;;;;;9.20;52.50;;;;;;5032346;28;20069;-51
2023/04/14 01:01:30;;;;;;;2.70;1.95;;;9.20;52.80;;;;;;5008184;28;19928;-47
2023/04/14 01:04:01;;;;;;;3.60;1.70;;;9.10;52.30;;;;;;5011003;28;20052;-48
2023/04/14 01:06:28;;;;;;;3.45;1.92;;;9.10;53.40;;;;;;5014051;28;20132;-47
2023/04/14 01:08:59;;;;;;;5.18;2.58;;;9.10;52.90;;;;;;5031802;28;20053;-50
2023/04/14 01:11:40;;;;;;;4.28;2.05;;;9.10;53.20;;;;;;5028200;28;20124;-47
2023/04/14 01:14:26;;;;;;;5.68;1.67;;;9.10;53.80;;;;;;5018137;28;20041;-49
2023/04/14 01:17:02;;;;;;;2.70;1.60;;;9.10;53.70;;;;;;5014911;28;20034;-50
2023/04/14 01:19:45;;;;;;;2.28;1.63;;;9.10;53.20;;;;;;5012274;28;20077;-50
2023/04/14 01:22:17;;;;;;;3.92;1.70;;;9.10;53.30;;;;;;4998166;28;20053;-49
2023/04/14 01:24:50;;;;;;;2.20;1.38;;;9.10;53.00;;;;;;5000885;28;20041;-50
2023/04/14 01:27:31;;;;;;;5.03;1.70;;;9.10;53.00;;;;;;5012562;28;20051;-47
2023/04/14 01:30:21;;;;;;;4.80;2.17;;;9.00;54.20;;;;;;5027705;28;20111;-50
2023/04/14 01:32:52;;;;;;;5.18;2.13;;;9.00;53.20;;;;;;5006678;28;20038;-48
2023/04/14 01:35:33;;;;;;;4.43;2.10;;;8.90;52.90;;;;;;4995125;28;20076;-51
2023/04/14 01:38:06;;;;;;;2.95;1.75;;;8.90;53.30;;;;;;5012827;28;20072;-47
2023/04/14 01:40:36;;;;;;;3.13;1.67;;;8.90;53.00;;;;;;5012275;28;20049;-49
2023/04/14 01:43:10;;;;;;;4.47;1.75;;;8.80;52.90;;;;;;5016024;28;20048;-50
2023/04/14 01:45:41;;;;;;;2.35;1.67;;;8.80;53.20;;;;;;5020674;28;20064;-48
2023/04/14 01:48:10;;;;;;;3.83;2.33;;;8.70;53.00;;;;;;5012685;28;20065;-51
2023/04/14 01:50:43;;;;;;;2.40;1.42;;;8.70;53.00;;;;;;5006681;28;20050;-50
2023/04/14 01:53:16;;;;;;;3.13;1.50;;;8.70;53.20;;;;;;5008089;28;20178;-50
2023/04/14 01:55:44;;;;;;;1.90;1.48;;;8.60;53.10;;;;;;5030806;28;20038;-47
2023/04/14 01:58:21;;;;;;;2.75;1.60;;;8.60;53.20;;;;;;5012513;28;20044;-51
2023/04/14 02:00:50;;;;;;;2.50;1.55;;;8.50;53.20;;;;;;4992764;28;20042;-49
2023/04/14 02:03:19;;;;;;;3.72;1.67;;;8.50;53.20;;;;;;5007350;28;20070;-47
2023/04/14 02:05:50;;;;;;;4.03;1.83;;;8.50;53.30;;;;;;4999811;28;20450;-50
2023/04/14 02:08:18;;;;;;;3.30;1.52;;;8.50;53.50;;;;;;5029733;28;20682;-50
2023/04/14 02:10:51;;;;;;;2.10;1.50;;;8.40;53.60;;;;;;5012259;28;20422;-49
2023/04/14 02:13:22;;;;;;;3.13;1.70;;;8.40;53.80;;;;;;5014270;28;20096;-51
2023/04/14 02:15:50;;;;;;;2.60;1.50;;;8.40;53.70;;;;;;5009293;28;20132;-51
2023/04/14 02:18:20;;;;;;;4.18;1.67;;;8.30;53.70;;;;;;5005959;28;20038;-48
2023/04/14 02:20:51;;;;;;;3.65;1.70;;;8.30;53.80;;;;;;5029365;28;20061;-50
2023/04/14 02:23:17;;;;;;;2.13;1.63;;;8.30;53.90;;;;;;5010042;28;20042;-51
2023/04/14 02:25:53;;;;;;;1.75;1.40;;;8.30;53.80;;;;;;5005707;28;20464;-50
2023/04/14 02:28:28;;;;;;;2.13;1.40;;;8.20;54.10;;;;;;5010259;28;20089;-49
2023/04/14 02:30:58;;;;;;;2.42;1.33;;;8.20;53.80;;;;;;5011878;28;20087;-48
2023/04/14 02:33:35;;;;;;;1.73;1.63;;;8.20;53.80;;;;;;4997950;28;20048;-47
2023/04/14 02:36:17;;;;;;;4.32;1.92;;;8.10;53.90;;;;;;5008951;28;20463;-48
2023/04/14 02:38:56;;;;;;;4.22;1.67;;;8.10;54.50;;;;;;5009148;28;20042;-50
2023/04/14 02:41:28;;;;;;;3.00;1.60;;;8.10;54.20;;;;;;5001629;28;20476;-47
2023/04/14 02:44:13;;;;;;;3.00;1.50;;;8.10;53.80;;;;;;5016556;28;20045;-49
2023/04/14 02:46:44;;;;;;;1.80;1.35;;;8.00;54.50;;;;;;5029177;28;20052;-47
2023/04/14 02:49:15;;;;;;;2.25;1.40;;;8.00;54.00;;;;;;5012471;28;20055;-49
2023/04/14 02:51:44;;;;;;;2.05;1.63;;;8.00;54.10;;;;;;4979526;28;20065;-47
2023/04/14 02:54:18;;;;;;;3.67;1.77;;;7.90;54.20;;;;;;5002803;28;20080;-50
2023/04/14 02:56:47;;;;;;;2.75;1.50;;;7.90;54.30;;;;;;5021872;28;20037;-47
2023/04/14 02:59:19;;;;;;;3.75;2.05;;;7.90;54.10;;;;;;5011147;28;20114;-49
2023/04/14 03:02:01;;;;;;;2.78;1.80;;;7.80;54.20;;;;;;4990801;28;20041;-50
2023/04/14 03:04:31;;;;;;;3.30;2.03;;;7.80;54.40;;;;;;4990445;28;20038;-48
2023/04/14 03:07:07;;;;;;;3.28;2.00;;;7.80;54.70;;;;;;5003629;28;20046;-47
2023/04/14 03:09:38;;;;;;;4.38;1.83;;;7.80;54.90;;;;;;5028401;28;20054;-50
2023/04/14 03:12:06;;;;;;;2.83;1.88;;;7.80;55.10;;;;;;5003532;28;20412;-46
2023/04/14 03:14:44;;;;;;;4.65;2.15;;;7.80;55.10;;;;;;4999327;28;20068;-47
2023/04/14 03:17:17;;;;;;;5.15;1.77;;;7.80;55.20;;;;;;4995539;28;20534;-48
2023/04/14 03:19:52;;;;;;;4.18;2.00;;;7.80;55.40;;;;;;5011218;28;20045;-47
2023/04/14 03:22:21;;;;;;;3.28;2.35;;;7.80;55.70;;;;;;4979818;28;20142;-50
2023/04/14 03:24:49;;;;;;;4.65;1.80;;;7.80;56.00;;;;;;5011441;28;20037;-48
2023/04/14 03:27:29;;;;;;;4.57;2.20;;;7.90;56.20;;;;;;4994197;28;20141;-50
2023/04/14 03:30:06;;;;;;;4.55;2.17;;;7.90;56.50;;;;;;5028954;22;20024;-49
2023/04/14 03:32:40;;;;;;;2.75;2.05;;;7.90;56.40;;;;;;4992888;28;20091;-47
2023/04/14 03:35:13;;;;;;;5.07;1.80;;;8.00;56.80;;;;;;5012314;28;20140;-49
2023/04/14 03:37:45;;;;;;;3.92;1.85;;;8.00;56.20;;;;;;5023668;28;20046;-48
2023/04/14 03:40:24;;;;;;;4.38;2.00;;;8.00;56.20;;;;;;5021378;28;20053;-47
2023/04/14 03:42:51;;;;;;;7.43;2.58;;;8.00;56.20;;;;;;5025172;28;20092;-48
2023/04/14 03:45:20;;;;;;;7.57;2.35;;;8.00;56.30;;;;;;5011360;28;20533;-47
2023/04/14 03:47:54;;;;;;;3.33;2.10;;;8.00;56.30;;;;;;5027674;28;20037;-47
2023/04/14 03:50:24;;;;;;;2.33;2.00;;;8.00;56.30;;;;;;5007236;28;20041;-48
2023/04/14 03:52:53;;;;;;;4.20;1.83;;;8.20;56.40;;;;;;5010790;28;20279;-49
2023/04/14 03:55:22;;;;;;;2.20;1.83;;;8.00;56.20;;;;;;5028249;28;20477;-50
2023/04/14 03:57:49;;;;;;;2.70;1.98;;;8.00;56.20;;;;;;5028646;28;20445;-46
2023/04/14 04:00:18;;;;;;;5.03;2.20;;;8.00;56.20;;;;;;5006168;28;20041;-50
2023/04/14 04:02:47;;;;;;;4.60;2.13;;;8.00;56.20;;;;;;5021140;28;20037;-51
2023/04/14 04:05:17;;;;;;;3.17;2.17;;;7.90;56.20;;;;;;5024033;28;20052;-51
2023/04/14 04:07:50;;;;;;;2.17;1.95;;;8.00;56.20;;;;;;5011257;28;20053;-50
2023/04/14 04:10:24;;;;;;;2.75;1.80;;;7.90;56.10;;;;;;5028014;28;20046;-48
2023/04/14 04:12:56;;;;;;;2.90;1.98;;;7.90;56.10;;;;;;5024804;28;20046;-51
2023/04/14 04:15:31;;;;;;;2.90;1.80;;;7.90;56.00;;;;;;5027941;28;20044;-51
2023/04/14 04:18:12;;;;;;;2.47;1.50;;;7.80;55.80;;;;;;5004838;28;20045;-51
2023/04/14 04:20:43;;;;;;;2.67;1.40;;;7.80;55.80;;;;;;4988721;28;20100;-50
2023/04/14 04:23:11;;;;;;;2.13;1.60;;;7.80;56.20;;;;;;5023893;28;20053;-52
2023/04/14 04:25:41;;;;;;;3.55;1.52;;;7.70;55.60;;;;;;5030757;28;20065;-50
2023/04/14 04:28:17;;;;;;;1.95;1.42;;;7.70;55.60;;;;;;5009786;28;20046;-50
2023/04/14 04:30:49;;;;;;;2.13;1.60;;;7.60;55.50;;;;;;5013917;28;20048;-52
2023/04/14 04:33:18;;;;;;;3.33;1.65;;;7.60;55.50;;;;;;5010082;28;20124;-49
2023/04/14 04:35:48;;;;;;;3.38;1.70;;;7.50;55.50;;;;;;5031201;28;20079;-51
2023/04/14 04:38:18;;;;;;;2.72;1.60;;;7.50;55.50;;;;;;5014215;28;20132;-50
2023/04/14 04:40:45;;;;;;;2.85;1.65;;;7.50;55.80;;;;;;5005051;28;20046;-48
2023/04/14 04:43:18;;;;;;;3.28;1.88;;;7.40;55.70;;;;;;5012077;28;20060;-52
2023/04/14 04:45:57;;;;;;;3.92;1.77;;;7.40;55.70;;;;;;5006450;28;20044;-47
2023/04/14 04:48:27;;;;;;;1.67;1.48;;;7.30;56.10;;;;;;5010700;28;20049;-49
2023/04/14 04:50:54;;;;;;;5.22;1.77;;;7.30;55.60;;;;;;5030170;28;20037;-52
2023/04/14 04:53:21;;;;;;;2.60;1.80;;;7.30;55.70;;;;;;5028513;28;20046;-50
2023/04/14 04:55:48;;;;;;;2.55;1.38;;;7.20;55.80;;;;;;5009077;28;20045;-48
2023/04/14 04:58:17;;;;;;;3.25;1.80;;;7.20;55.80;;;;;;5028263;28;20528;-46
2023/04/14 05:00:43;;;;;;;3.42;1.90;;;7.20;56.00;;;;;;5026749;28;20044;-52
2023/04/14 05:03:10;;;;;;;2.00;1.63;;;7.10;56.00;;;;;;5027168;28;20037;-50
2023/04/14 05:05:37;;;;;;;5.32;2.03;;;7.10;56.00;;;;;;5029881;28;20120;-50
2023/04/14 05:08:04;;;;;;;2.22;1.70;;;7.10;56.20;;;;;;5031823;28;20413;-46
2023/04/14 05:10:35;;;;;;;2.70;1.85;;;7.10;56.40;;;;;;5027053;28;20134;-48
2023/04/14 05:13:02;;;;;;;3.15;1.75;;;7.10;56.90;;;;;;5025469;28;20100;-48
2023/04/14 05:15:29;;;;;;;3.22;2.25;;;7.10;56.80;;;;;;5031617;28;20045;-49
2023/04/14 05:17:57;;;;;;;3.88;2.13;;;7.10;56.90;;;;;;5031463;28;20133;-50
2023/04/14 05:20:28;;;;;;;3.15;2.03;;;7.10;57.10;;;;;;5023130;28;20043;-52
2023/04/14 05:22:55;;;;;;;3.17;1.90;;;7.10;57.10;;;;;;5031751;28;20446;-52
2023/04/14 05:25:21;;;;;;;2.78;1.80;;;7.20;57.20;;;;;;5030703;28;20034;-50
2023/04/14 05:27:50;;;;;;;3.75;2.15;;;7.20;57.30;;;;;;5006238;28;20430;-50
2023/04/14 05:30:17;;;;;;;3.42;1.92;;;7.20;57.30;;;;;;5021775;28;20060;-47
2023/04/14 05:32:43;;;;;;;3.35;1.60;;;7.20;57.30;;;;;;5010103;28;20042;-48
2023/04/14 05:35:10;;;;;;;3.63;1.48;;;7.20;57.30;;;;;;5026460;28;20465;-49
2023/04/14 05:37:36;;;;;;;2.92;1.58;;;7.20;57.40;;;;;;5029593;28;20057;-47
2023/04/14 05:40:04;;;;;;;1.95;1.75;;;7.20;57.50;;;;;;5029996;28;20037;-48
2023/04/14 05:42:30;;;;;;;4.38;1.95;;;7.30;57.70;;;;;;5027288;28;20065;-51
2023/04/14 05:44:59;;;;;;;3.08;1.75;;;7.30;57.70;;;;;;5028034;28;20049;-51
2023/04/14 05:47:27;;;;;;;2.58;1.70;;;7.30;57.80;;;;;;5026847;28;20041;-52
2023/04/14 05:49:54;;;;;;;5.07;2.10;;;7.30;57.90;;;;;;5029934;28;20045;-50
2023/04/14 05:52:21;;;;;;;4.63;3.13;;;7.30;58.00;;;;;;5025173;28;20045;-51
2023/04/14 05:54:50;;;;;;;2.55;2.30;;;7.40;58.20;;;;;;5030001;28;20061;-48
2023/04/14 05:57:17;;;;;;;3.55;1.80;;;7.40;58.20;;;;;;5028905;28;20041;-50
2023/04/14 05:59:48;;;;;;;3.33;2.05;;;7.40;58.40;;;;;;5026346;28;20080;-49
2023/04/14 06:02:14;;;;;;;3.15;2.35;;;7.50;58.70;;;;;;5025681;28;20133;-52
2023/04/14 06:04:41;;;;;;;2.58;1.88;;;7.50;58.60;;;;;;5023857;28;20045;-51
2023/04/14 06:07:08;;;;;;;4.75;1.88;;;7.60;58.70;;;;;;5029546;28;20060;-50
2023/04/14 06:09:35;;;;;;;4.80;2.30;;;7.60;59.40;;;;;;5029439;28;20486;-52
2023/04/14 06:12:01;;;;;;;4.28;2.10;;;7.70;58.90;;;;;;5021003;28;20046;-51
2023/04/14 06:14:30;;;;;;;3.78;1.95;;;7.70;59.00;;;;;;5020588;28;20573;-52
2023/04/14 06:16:57;;;;;;;4.55;2.40;;;7.70;59.30;;;;;;5028931;28;20033;-50
2023/04/14 06:19:24;;;;;;;4.85;2.78;;;7.80;59.30;;;;;;5028806;28;20057;-50
2023/04/14 06:21:50;;;;;;;5.72;2.05;;;7.80;59.40;;;;;;5024998;28;20053;-45
2023/04/14 06:24:17;;;;;;;3.88;2.13;;;7.90;59.60;;;;;;5027557;28;20397;-48
2023/04/14 06:26:44;;;;;;;5.70;2.83;;;7.90;59.70;;;;;;4998194;28;20056;-52
2023/04/14 06:29:10;;;;;;;4.32;2.60;;;8.00;59.80;;;;;;5024253;28;20041;-49
2023/04/14 06:31:37;;;;;;;4.18;2.85;;;8.00;59.80;;;;;;5028312;28;20413;-45
2023/04/14 06:34:04;;;;;;;8.23;3.83;;;8.10;60.00;;;;;;5024984;28;20045;-52
2023/04/14 06:36:31;;;;;;;6.07;3.38;;;8.20;60.20;;;;;;5027189;28;20045;-50
2023/04/14 06:38:59;;;;;;;4.70;3.45;;;8.20;60.40;;;;;;5027589;28;20033;-49
2023/04/14 06:41:26;;;;;;;5.57;3.00;;;8.30;60.40;;;;;;5026380;28;20501;-48
2023/04/14 06:43:52;;;;;;;6.05;2.72;;;8.40;60.40;;;;;;5028196;28;20046;-45
2023/04/14 06:46:19;;;;;;;7.22;3.20;;;8.40;60.60;;;;;;5026963;28;20048;-47
2023/04/14 06:48:48;;;;;;;6.18;3.05;;;8.50;60.70;;;;;;5027063;28;20383;-52
2023/04/14 06:51:14;;;;;;;4.85;3.15;;;8.60;60.70;;;;;;5026308;28;20057;-48
2023/04/14 06:53:44;;;;;;;5.97;3.63;;;8.60;60.80;;;;;;5020435;28;20037;-46
2023/04/14 06:56:10;;;;;;;5.43;3.03;;;8.70;61.10;;;;;;5029689;28;20065;-49
2023/04/14 06:58:38;;;;;;;5.30;2.80;;;8.70;60.80;;;;;;5025076;28;20042;-50
2023/04/14 07:01:05;;;;;;;3.72;2.35;;;8.80;60.60;;;;;;5030674;28;20048;-49
2023/04/14 07:03:33;;;;;;;5.10;2.20;;;8.90;60.70;;;;;;5023576;28;20070;-49
2023/04/14 07:06:04;;;;;;;3.85;2.42;;;8.90;60.80;;;;;;5030347;28;20481;-48
2023/04/14 07:08:31;;;;;;;4.88;2.47;;;9.00;61.10;;;;;;5029210;28;20050;-49
2023/04/14 07:11:02;;;;;;;6.38;2.60;;;9.10;60.80;;;;;;5009430;28;20044;-51
2023/04/14 07:13:29;;;;;;;2.97;2.45;;;9.10;61.10;;;;;;5028773;28;20048;-49
2023/04/14 07:15:55;;;;;;;5.15;2.47;;;9.20;61.00;;;;;;5024773;28;20116;-51
2023/04/14 07:18:24;;;;;;;5.65;2.50;;;9.30;60.90;;;;;;5027441;28;20454;-52
2023/04/14 07:20:52;;;;;;;5.35;2.90;;;9.30;60.90;;;;;;5026562;28;20037;-52
2023/04/14 07:23:22;;;;;;;4.60;2.35;;;9.40;61.00;;;;;;5024834;28;20033;-47
2023/04/14 07:25:53;;;;;;;7.57;2.90;;;9.40;61.10;;;;;;5022199;28;20029;-47
2023/04/14 07:28:21;;;;;;;4.03;2.47;;;9.50;61.20;;;;;;5025188;28;20045;-48
2023/04/14 07:30:49;;;;;;;4.18;2.60;;;9.50;61.20;;;;;;5021869;28;20044;-48
2023/04/14 07:33:18;;;;;;;7.93;2.65;;;9.70;61.10;;;;;;5023749;28;20502;-52
2023/04/14 07:35:46;;;;;;;7.65;3.28;;;9.70;61.00;;;;;;5017064;28;20084;-51
2023/04/14 07:38:27;;;;;;;7.60;2.75;;;9.80;60.90;;;;;;5024659;28;20044;-49
2023/04/14 07:40:54;;;;;;;6.65;2.55;;;9.90;60.90;;;;;;5028212;28;20041;-52
2023/04/14 07:43:21;;;;;;;7.40;2.80;;;9.90;60.90;;;;;;5024768;28;20391;-47
2023/04/14 07:45:48;;;;;;;4.03;2.67;;;10.00;60.90;;;;;;5021692;28;20052;-52
2023/04/14 07:48:17;;;;;;;6.78;2.55;;;10.10;60.90;;;;;;5028274;28;20449;-46
2023/04/14 07:50:45;;;;;;;6.55;2.15;;;10.20;60.80;;;;;;5029326;28;20052;-50
2023/04/14 07:53:12;;;;;;;4.45;2.88;;;10.20;60.70;;;;;;5026204;28;20049;-51
2023/04/14 07:55:39;;;;;;;6.38;2.83;;;10.30;60.70;;;;;;5028947;28;20045;-52
2023/04/14 07:58:06;;;;;;;5.57;2.45;;;10.40;60.60;;;;;;5031155;28;20034;-49
2023/04/14 08:00:32;;;;;;;6.82;2.53;;;10.50;60.50;;;;;;5032940;28;20045;-52
2023/04/14 08:02:59;;;;;;;8.77;3.20;;;10.50;60.30;;;;;;5024945;28;20567;-50
2023/04/14 08:05:26;;;;;;;6.85;2.90;;;10.60;60.30;;;;;;5031185;28;20111;-52
2023/04/14 08:07:53;;;;;;;5.72;2.35;;;10.70;60.20;;;;;;5024299;28;20037;-51
2023/04/14 08:10:20;;;;;;;4.88;2.45;;;10.70;60.10;;;;;;5027024;28;20048;-52
2023/04/14 08:12:46;;;;;;;5.72;2.33;;;10.80;59.90;;;;;;5031260;28;20116;-49
2023/04/14 08:15:13;;;;;;;6.22;1.92;;;10.90;59.80;;;;;;5026003;28;20041;-47
2023/04/14 08:17:40;;;;;;;5.78;1.63;;;11.00;59.70;;;;;;5026490;28;20044;-51
2023/04/14 08:20:07;;;;;;;3.28;1.83;;;11.10;59.70;;;;;;5031303;28;20087;-52
2023/04/14 08:22:34;;;;;;;3.05;1.50;;;11.10;59.50;;;;;;5028061;28;20052;-48
2023/04/14 08:25:01;;;;;;;4.38;1.63;;;11.20;59.40;;;;;;5011461;28;20033;-49
2023/04/14 08:27:27;;;;;;;6.90;1.77;;;11.30;59.20;;;;;;5026396;28;20052;-52
2023/04/14 08:29:54;;;;;;;2.42;1.45;;;11.40;58.90;;;;;;5032237;28;20045;-51
2023/04/14 08:32:21;;;;;;;4.38;1.83;;;11.40;58.60;;;;;;5031212;28;20057;-45
2023/04/14 08:34:48;;;;;;;4.72;1.58;;;11.50;58.20;;;;;;5026678;28;20048;-50
2023/04/14 08:37:34;;;;;;;3.70;1.20;;;11.60;58.10;;;;;;5031390;28;20037;-48
2023/04/14 08:40:01;;;;;;;3.20;1.50;;;11.70;57.60;;;;;;5030094;28;20407;-51
2023/04/14 08:42:30;;;;;;;5.80;1.33;;;11.80;57.20;;;;;;5010690;28;20041;-47
2023/04/14 08:44:56;;;;;;;6.22;1.25;;;11.80;56.80;;;;;;5031554;28;20041;-51
2023/04/14 08:47:25;;;;;;;2.55;1.50;;;11.90;56.70;;;;;;5030746;28;20041;-50
2023/04/14 08:49:59;;;;;;;2.80;1.45;;;12.00;56.80;;;;;;5020161;28;20045;-48
2023/04/14 08:52:27;;;;;;;4.20;1.77;;;12.00;56.70;;;;;;5033566;28;20045;-52
2023/04/14 08:54:55;;;;;;;6.25;1.88;;;12.10;56.30;;;;;;5031497;28;20037;-49
2023/04/14 08:57:24;;;;;;;4.28;1.55;;;12.20;56.20;;;;;;5028212;28;20065;-51
2023/04/14 08:59:54;;;;;;;2.63;1.52;;;12.30;56.40;;;;;;5031705;28;20044;-47
2023/04/14 09:02:21;;;;;;;3.40;1.50;;;12.30;56.00;;;;;;5029689;28;20045;-49
2023/04/14 09:04:48;;;;;;;6.32;1.45;;;12.40;55.70;;;;;;5028847;28;20413;-48
2023/04/14 09:07:15;;;;;;;8.60;1.45;;;12.50;55.40;;;;;;5030849;28;20045;-51
2023/04/14 09:09:43;;;;;;;3.40;1.35;;;12.50;55.80;;;;;;5028958;28;20124;-50
2023/04/14 09:12:11;;;;;;;4.47;1.40;;;12.60;55.80;;;;;;5025310;28;20087;-49
2023/04/14 09:14:39;;;;;;;5.75;1.58;;;12.60;55.50;;;;;;5028758;28;20052;-50
2023/04/14 09:17:06;;;;;;;1.88;1.27;;;12.70;55.20;;;;;;5025761;28;20049;-51
2023/04/14 09:19:34;;;;;;;3.42;1.10;;;12.80;55.20;;;;;;5030682;28;20034;-50
2023/04/14 09:22:00;;;;;;;5.25;1.33;;;12.80;55.30;;;;;;5027485;28;20289;-52
2023/04/14 09:24:28;;;;;;;5.93;1.20;;;13.00;55.20;;;;;;5030798;28;20402;-51
2023/04/14 09:27:00;;;;;;;2.42;1.05;;;12.90;54.20;;;;;;5028329;28;20113;-51
2023/04/14 09:29:27;;;;;;;2.45;1.20;;;13.00;53.60;;;;;;5030541;28;20116;-51
2023/04/14 09:31:55;;;;;;;3.42;0.90;;;13.10;53.30;;;;;;5031518;28;20060;-52
2023/04/14 09:34:21;;;;;;;5.07;1.27;;;13.10;53.20;;;;;;5022245;28;20038;-50
2023/04/14 09:37:05;;;;;;;4.45;1.50;;;13.20;53.30;;;;;;5030819;28;20048;-52
2023/04/14 09:39:33;;;;;;;3.78;1.35;;;13.20;53.70;;;;;;5030383;28;20037;-48
2023/04/14 09:42:03;;;;;;;3.70;1.17;;;13.30;53.30;;;;;;5030980;28;20039;-49
2023/04/14 09:44:30;;;;;;;5.18;1.35;;;13.40;53.30;;;;;;5026539;28;20045;-51
2023/04/14 09:47:00;;;;;;;4.47;1.30;;;13.40;53.20;;;;;;5029396;28;20045;-50
2023/04/14 09:49:28;;;;;;;1.90;0.98;;;13.50;53.60;;;;;;5030000;28;20413;-51
2023/04/14 09:52:06;;;;;;;2.85;1.00;;;13.50;53.40;;;;;;5032986;28;20038;-48
2023/04/14 09:54:33;;;;;;;4.70;1.25;;;13.60;53.20;;;;;;5029977;28;20121;-48
2023/04/14 09:57:01;;;;;;;4.00;1.83;;;13.70;53.20;;;;;;5029654;28;20045;-48
2023/04/14 09:59:36;;;;;;;3.03;1.00;;;13.70;52.50;;;;;;5027721;28;20087;-51
2023/04/14 10:02:05;;;;;;;2.80;1.20;;;13.80;52.10;;;;;;5020248;28;20048;-48
2023/04/14 10:04:32;;;;;;;2.25;1.20;;;13.90;51.90;;;;;;5026092;28;20045;-50
2023/04/14 10:06:59;;;;;;;2.70;1.20;;;14.00;51.90;;;;;;5021555;28;20110;-46
2023/04/14 10:09:28;;;;;;;3.50;1.50;;;14.00;51.70;;;;;;5028287;28;20046;-46
2023/04/14 10:12:13;;;;;;;2.33;1.35;;;14.10;51.40;;;;;;5019307;28;20038;-51
2023/04/14 10:14:41;;;;;;;4.55;1.63;;;14.20;50.90;;;;;;5024959;28;20672;-50
2023/04/14 10:17:08;;;;;;;2.30;1.23;;;14.20;51.30;;;;;;5022202;28;20045;-50
2023/04/14 10:19:36;;;;;;;3.08;1.20;;;14.30;51.70;;;;;;5025626;28;20033;-49
2023/04/14 10:22:05;;;;;;;3.90;1.10;;;14.40;50.20;;;;;;5025212;28;20038;-49
2023/04/14 10:24:32;;;;;;;1.63;1.13;;;14.50;50.50;;;;;;5028777;28;20045;-46
2023/04/14 10:27:02;;;;;;;1.35;0.90;;;14.50;50.30;;;;;;5025115;28;20045;-47
2023/04/14 10:29:29;;;;;;;2.97;1.35;;;14.60;50.00;;;;;;5028578;28;20041;-49
2023/04/14 10:32:06;;;;;;;4.55;1.52;;;14.70;50.70;;;;;;5018736;28;20037;-50
2023/04/14 10:34:34;;;;;;;2.80;0.95;;;14.70;50.30;;;;;;5025118;28;20041;-47
2023/04/14 10:37:11;;;;;;;3.15;1.08;;;14.80;50.20;;;;;;5028065;28;20038;-51
2023/04/14 10:39:39;;;;;;;3.70;1.13;;;14.90;49.70;;;;;;5026040;28;20045;-50
2023/04/14 10:42:06;;;;;;;1.30;0.82;;;14.90;49.70;;;;;;5024401;28;20434;-50
2023/04/14 10:44:34;;;;;;;0.93;0.77;;;15.00;48.70;;;;;;5026406;28;20037;-51
2023/04/14 10:47:03;;;;;;;1.85;0.70;;;15.10;49.30;;;;;;5024688;28;20064;-48
2023/04/14 10:49:31;;;;;;;4.63;1.40;;;15.10;49.00;;;;;;5029904;28;20090;-51
2023/04/14 10:52:04;;;;;;;1.35;0.65;;;15.20;49.30;;;;;;5024699;28;20398;-50
2023/04/14 10:55:01;;;;;;;2.08;1.17;;;15.20;48.10;;;;;;5029779;28;20037;-47
2023/04/14 10:57:29;;;;;;;3.88;1.30;;;15.30;48.50;;;;;;5027366;28;20163;-49
2023/04/14 10:59:59;;;;;;;1.83;1.15;;;15.30;49.20;;;;;;5026931;28;20033;-47
2023/04/14 11:02:29;;;;;;;3.67;1.30;;;15.40;49.10;;;;;;5027949;28;20461;-50
2023/04/14 11:05:02;;;;;;;2.08;0.90;;;15.40;48.80;;;;;;5027963;28;20426;-47
2023/04/14 11:07:30;;;;;;;3.15;1.23;;;15.50;48.80;;;;;;5025413;28;20048;-48
2023/04/14 11:10:00;;;;;;;3.45;1.20;;;15.50;49.50;;;;;;5022759;28;20049;-50
2023/04/14 11:12:27;;;;;;;3.83;1.65;;;15.60;49.10;;;;;;5023284;28;20056;-51
2023/04/14 11:14:58;;;;;;;3.65;1.40;;;15.70;49.40;;;;;;5027542;28;20112;-49
2023/04/14 11:17:28;;;;;;;4.22;1.80;;;15.80;48.90;;;;;;5027228;28;20520;-50
2023/04/14 11:19:56;;;;;;;2.85;1.70;;;15.90;49.00;;;;;;5025842;28;20037;-51
2023/04/14 11:22:37;;;;;;;4.75;1.77;;;16.00;48.50;;;;;;5022021;28;20033;-47
2023/04/14 11:25:04;;;;;;;1.98;1.30;;;16.10;48.10;;;;;;5024793;28;20044;-49
2023/04/14 11:27:31;;;;;;;4.47;1.27;;;16.20;48.20;;;;;;5025976;28;20045;-47
2023/04/14 11:29:59;;;;;;;5.25;1.75;;;16.30;47.90;;;;;;5028304;28;20119;-48
2023/04/14 11:32:27;;;;;;;2.22;1.05;;;16.40;48.20;;;;;;5028315;28;20052;-48
2023/04/14 11:34:53;;;;;;;4.45;2.35;;;16.50;47.20;;;;;;5028249;28;20128;-48
2023/04/14 11:37:20;;;;;;;2.97;1.35;;;16.70;46.90;;;;;;5031889;28;20529;-49
2023/04/14 11:39:49;;;;;;;3.13;1.00;;;16.80;47.30;;;;;;5014602;28;20046;-50
2023/04/14 11:42:15;;;;;;;2.33;1.10;;;16.90;46.70;;;;;;5028592;28;20042;-50
2023/04/14 11:44:42;;;;;;;2.13;1.30;;;16.90;46.60;;;;;;5031693;28;20049;-51
2023/04/14 11:47:08;;;;;;;4.10;1.23;;;17.00;46.40;;;;;;5033870;28;20041;-50
2023/04/14 11:49:35;;;;;;;3.00;1.00;;;17.10;46.50;;;;;;5028960;28;20050;-48
2023/04/14 11:52:08;;;;;;;3.50;1.23;;;17.10;46.40;;;;;;5035085;28;20076;-51
2023/04/14 11:54:38;;;;;;;5.82;1.15;;;17.20;45.30;;;;;;5031249;28;20049;-51
2023/04/14 11:57:23;;;;;;;1.98;1.08;;;17.20;45.30;;;;;;5032375;28;20091;-51
2023/04/14 11:59:50;;;;;;;3.40;0.93;;;17.30;44.90;;;;;;5030241;28;20045;-48
2023/04/14 12:02:18;;;;;;;3.25;1.08;;;17.40;45.70;;;;;;5030339;28;20057;-51
2023/04/14 12:04:47;;;;;;;1.23;0.80;;;17.40;45.10;;;;;;5025886;28;20461;-51
2023/04/14 12:07:17;;;;;;;2.63;1.17;;;17.40;44.70;;;;;;5032252;28;20120;-49
2023/04/14 12:09:47;;;;;;;2.83;1.27;;;17.50;44.20;;;;;;5031742;28;20450;-47
2023/04/14 12:12:16;;;;;;;1.63;0.93;;;17.50;44.60;;;;;;5029528;28;20045;-49
2023/04/14 12:14:44;;;;;;;2.85;1.15;;;17.60;44.40;;;;;;5026941;28;20076;-49
2023/04/14 12:17:14;;;;;;;2.08;0.77;;;17.70;44.30;;;;;;5026633;28;20053;-49
2023/04/14 12:19:41;;;;;;;2.60;0.90;;;17.90;44.40;;;;;;5031467;28;20065;-50
2023/04/14 12:22:08;;;;;;;3.75;0.98;;;18.00;44.40;;;;;;5028685;28;20042;-51
2023/04/14 12:24:39;;;;;;;2.08;1.58;;;18.20;44.60;;;;;;5031214;28;20112;-52
2023/04/14 12:27:08;;;;;;;1.45;0.88;;;18.30;44.60;;;;;;5027406;28;20052;-52
2023/04/14 12:29:35;;;;;;;2.08;0.90;;;18.50;43.90;;;;;;5028018;28;20034;-52
2023/04/14 12:32:09;;;;;;;2.67;1.15;;;18.70;43.90;;;;;;5031014;28;20064;-52
2023/04/14 12:34:36;;;;;;;3.22;1.10;;;18.80;42.70;;;;;;5026160;28;20103;-50
2023/04/14 12:37:11;;;;;;;4.03;1.20;;;18.90;42.60;;;;;;5032822;28;20033;-50
2023/04/14 12:39:51;;;;;;;1.58;0.63;;;19.10;42.40;;;;;;5023218;28;20120;-50
2023/04/14 12:42:18;;;;;;;2.58;0.70;;;19.20;41.40;;;;;;5023573;28;20073;-50
2023/04/14 12:44:56;;;;;;;3.25;1.23;;;19.30;41.40;;;;;;5028269;28;20045;-48
2023/04/14 12:47:32;;;;;;;1.40;0.85;;;19.40;40.60;;;;;;5032900;28;20037;-51
2023/04/14 12:50:20;;;;;;;2.30;1.13;;;19.50;41.30;;;;;;5029602;28;20120;-48
2023/04/14 12:52:46;;;;;;;1.95;0.90;;;19.50;41.60;;;;;;5031299;28;20534;-49
2023/04/14 12:55:21;;;;;;;3.50;1.13;;;19.60;41.00;;;;;;5028494;28;20493;-50
2023/04/14 12:57:51;;;;;;;1.05;0.70;;;19.70;40.00;;;;;;5027533;28;20570;-49
2023/04/14 13:00:18;;;;;;;2.42;1.33;;;19.80;40.00;;;;;;5023199;28;20034;-50
2023/04/14 13:02:44;;;;;;;2.80;0.80;;;19.80;40.40;;;;;;5023727;28;20045;-51
2023/04/14 13:05:13;;;;;;;1.90;0.70;;;19.90;40.70;;;;;;5029342;28;20120;-52
2023/04/14 13:07:39;;;;;;;4.78;1.23;;;20.00;39.80;;;;;;5026194;28;20056;-48